sensor_id;sensor_type;location;lat;lon;timestamp;pressure;altitude;pressure_sealevel;temperature;humidity
44457;BME280;30159;49.316;8.558;2023-01-23T00:02:06;101773.13;;;1.71;100.00
44457;BME280;30159;49.316;8.558;2023-01-23T00:04:33;101839.63;;;2.07;100.00
44457;BME280;30159;49.316;8.558;2023-01-23T00:07:00;101833.16;;;1.95;100.00
44457;BME280;30159;49.316;8.558;2023-01-23T00:09:29;101784.78;;;1.55;100.00
44457;BME280;30159;49.316;8.558;2023-01-23T00:11:56;101838.38;;;1.88;100.00
44457;BME280;30159;49.316;8.558;2023-01-23T00:14:22;101832.97;;;1.81;100.00
44457;BME280;30159;49.316;8.558;2023-01-23T00:16:49;101838.03;;;1.76;100.00
44457;BME280;30159;49.316;8.558;2023-01-23T00:19:15;101841.50;;;1.92;100.00
44457;BME280;30159;49.316;8.558;2023-01-23T00:21:42;101841.69;;;1.90;100.00
44457;BME280;30159;49.316;8.558;2023-01-23T00:24:10;101840.50;;;1.93;100.00
44457;BME280;30159;49.316;8.558;2023-01-23T00:26:38;101826.63;;;1.97;100.00
44457;BME280;30159;49.316;8.558;2023-01-23T00:29:07;101829.75;;;2.01;100.00
44457;BME280;30159;49.316;8.558;2023-01-23T00:31:35;101830.66;;;2.08;100.00
44457;BME280;30159;49.316;8.558;2023-01-23T00:34:04;101815.31;;;2.10;100.00
44457;BME280;30159;49.316;8.558;2023-01-23T00:36:33;101807.78;;;2.14;100.00
44457;BME280;30159;49.316;8.558;2023-01-23T00:39:01;101767.50;;;1.80;100.00
44457;BME280;30159;49.316;8.558;2023-01-23T00:41:27;101827.13;;;2.07;100.00
44457;BME280;30159;49.316;8.558;2023-01-23T00:43:55;101823.31;;;2.10;100.00
44457;BME280;30159;49.316;8.558;2023-01-23T00:46:22;101828.81;;;2.08;100.00
44457;BME280;30159;49.316;8.558;2023-01-23T00:48:49;101826.41;;;2.14;100.00
44457;BME280;30159;49.316;8.558;2023-01-23T00:51:16;101820.25;;;2.13;100.00
44457;BME280;30159;49.316;8.558;2023-01-23T00:53:43;101812.69;;;1.95;100.00
44457;BME280;30159;49.316;8.558;2023-01-23T00:56:10;101833.16;;;1.95;100.00
44457;BME280;30159;49.316;8.558;2023-01-23T00:58:37;101831.88;;;1.90;100.00
44457;BME280;30159;49.316;8.558;2023-01-23T01:01:06;101830.03;;;1.91;100.00
44457;BME280;30159;49.316;8.558;2023-01-23T01:03:33;101830.88;;;1.92;100.00
44457;BME280;30159;49.316;8.558;2023-01-23T01:06:00;101830.31;;;1.96;100.00
44457;BME280;30159;49.316;8.558;2023-01-23T01:08:27;101769.25;;;1.58;100.00
44457;BME280;30159;49.316;8.558;2023-01-23T01:10:54;101830.31;;;1.81;100.00
44457;BME280;30159;49.316;8.558;2023-01-23T01:13:20;101817.47;;;1.70;100.00
44457;BME280;30159;49.316;8.558;2023-01-23T01:15:48;101827.56;;;1.89;100.00
44457;BME280;30159;49.316;8.558;2023-01-23T01:18:17;101831.13;;;1.97;100.00
44457;BME280;30159;49.316;8.558;2023-01-23T01:20:44;101846.84;;;1.92;100.00
44457;BME280;30159;49.316;8.558;2023-01-23T01:23:11;101836.06;;;2.00;100.00
44457;BME280;30159;49.316;8.558;2023-01-23T01:25:38;101840.66;;;1.91;100.00
44457;BME280;30159;49.316;8.558;2023-01-23T01:28:05;101838.94;;;1.98;100.00
44457;BME280;30159;49.316;8.558;2023-01-23T01:30:32;101854.13;;;2.04;100.00
44457;BME280;30159;49.316;8.558;2023-01-23T01:32:58;101850.19;;;2.00;100.00
44457;BME280;30159;49.316;8.558;2023-01-23T01:35:26;101851.31;;;1.91;100.00
44457;BME280;30159;49.316;8.558;2023-01-23T01:37:53;101853.16;;;1.90;100.00
44457;BME280;30159;49.316;8.558;2023-01-23T01:40:22;101847.72;;;1.84;100.00
44457;BME280;30159;49.316;8.558;2023-01-23T01:42:51;101846.38;;;1.73;100.00
44457;BME280;30159;49.316;8.558;2023-01-23T01:45:56;101849.78;;;1.67;100.00
44457;BME280;30159;49.316;8.558;2023-01-23T01:48:27;101857.22;;;1.57;100.00
44457;BME280;30159;49.316;8.558;2023-01-23T01:50:58;101842.09;;;1.57;100.00
44457;BME280;30159;49.316;8.558;2023-01-23T01:53:27;101854.63;;;1.48;100.00
44457;BME280;30159;49.316;8.558;2023-01-23T01:55:55;101860.97;;;1.47;100.00
44457;BME280;30159;49.316;8.558;2023-01-23T01:58:23;101870.25;;;1.52;100.00
44457;BME280;30159;49.316;8.558;2023-01-23T02:00:50;101868.94;;;1.47;100.00
44457;BME280;30159;49.316;8.558;2023-01-23T02:03:17;101863.91;;;1.53;100.00
44457;BME280;30159;49.316;8.558;2023-01-23T02:05:45;101867.84;;;1.57;100.00
44457;BME280;30159;49.316;8.558;2023-01-23T02:08:18;101866.19;;;1.41;100.00
44457;BME280;30159;49.316;8.558;2023-01-23T02:10:46;101873.06;;;1.50;100.00
44457;BME280;30159;49.316;8.558;2023-01-23T02:13:22;101869.75;;;1.63;100.00
44457;BME280;30159;49.316;8.558;2023-01-23T02:15:50;101871.78;;;1.61;100.00
44457;BME280;30159;49.316;8.558;2023-01-23T02:18:18;101862.81;;;1.62;100.00
44457;BME280;30159;49.316;8.558;2023-01-23T02:20:45;101865.91;;;1.65;100.00
44457;BME280;30159;49.316;8.558;2023-01-23T02:23:20;101863.44;;;1.64;100.00
44457;BME280;30159;49.316;8.558;2023-01-23T02:25:54;101870.78;;;1.62;100.00
44457;BME280;30159;49.316;8.558;2023-01-23T02:28:21;101876.63;;;1.72;100.00
44457;BME280;30159;49.316;8.558;2023-01-23T02:30:48;101875.00;;;1.71;100.00
44457;BME280;30159;49.316;8.558;2023-01-23T02:36:23;101868.56;;;1.80;100.00
44457;BME280;30159;49.316;8.558;2023-01-23T02:39:00;101831.81;;;1.54;100.00
44457;BME280;30159;49.316;8.558;2023-01-23T02:41:31;101872.59;;;1.76;100.00
44457;BME280;30159;49.316;8.558;2023-01-23T02:44:00;101870.97;;;1.75;100.00
44457;BME280;30159;49.316;8.558;2023-01-23T02:46:27;101878.47;;;1.72;100.00
44457;BME280;30159;49.316;8.558;2023-01-23T02:48:55;101874.19;;;1.71;100.00
44457;BME280;30159;49.316;8.558;2023-01-23T02:51:24;101873.09;;;1.80;100.00
44457;BME280;30159;49.316;8.558;2023-01-23T02:53:50;101876.19;;;1.83;100.00
44457;BME280;30159;49.316;8.558;2023-01-23T02:56:17;101873.09;;;1.80;100.00
44457;BME280;30159;49.316;8.558;2023-01-23T02:58:45;101810.56;;;1.54;100.00
44457;BME280;30159;49.316;8.558;2023-01-23T03:01:30;101868.13;;;1.92;100.00
44457;BME280;30159;49.316;8.558;2023-01-23T03:04:00;101859.03;;;2.01;100.00
44457;BME280;30159;49.316;8.558;2023-01-23T03:06:27;101853.75;;;2.07;100.00
44457;BME280;30159;49.316;8.558;2023-01-23T03:08:55;101850.34;;;2.14;100.00
44457;BME280;30159;49.316;8.558;2023-01-23T03:11:24;101855.69;;;2.14;100.00
44457;BME280;30159;49.316;8.558;2023-01-23T03:13:52;101851.31;;;2.27;100.00
44457;BME280;30159;49.316;8.558;2023-01-23T03:16:19;101857.72;;;2.33;100.00
44457;BME280;30159;49.316;8.558;2023-01-23T03:18:45;101862.47;;;2.16;100.00
44457;BME280;30159;49.316;8.558;2023-01-23T03:21:14;101854.03;;;1.98;100.00
44457;BME280;30159;49.316;8.558;2023-01-23T03:23:40;101866.19;;;1.85;100.00
44457;BME280;30159;49.316;8.558;2023-01-23T03:26:12;101865.44;;;1.77;100.00
44457;BME280;30159;49.316;8.558;2023-01-23T03:28:39;101869.94;;;1.76;100.00
44457;BME280;30159;49.316;8.558;2023-01-23T03:31:24;101878.47;;;1.72;100.00
44457;BME280;30159;49.316;8.558;2023-01-23T03:33:50;101872.88;;;1.66;100.00
44457;BME280;30159;49.316;8.558;2023-01-23T03:36:17;101845.28;;;1.53;100.00
44457;BME280;30159;49.316;8.558;2023-01-23T03:38:44;101859.88;;;1.57;100.00
44457;BME280;30159;49.316;8.558;2023-01-23T03:41:24;101872.06;;;1.51;100.00
44457;BME280;30159;49.316;8.558;2023-01-23T03:43:51;101865.66;;;1.45;100.00
44457;BME280;30159;49.316;8.558;2023-01-23T03:46:18;101870.78;;;1.62;100.00
44457;BME280;30159;49.316;8.558;2023-01-23T03:48:46;101867.94;;;1.78;100.00
44457;BME280;30159;49.316;8.558;2023-01-23T03:51:12;101859.94;;;1.93;100.00
44457;BME280;30159;49.316;8.558;2023-01-23T03:53:39;101877.00;;;1.99;100.00
44457;BME280;30159;49.316;8.558;2023-01-23T03:56:06;101862.47;;;2.16;100.00
44457;BME280;30159;49.316;8.558;2023-01-23T03:58:32;101862.38;;;2.24;100.00
44457;BME280;30159;49.316;8.558;2023-01-23T04:00:59;101821.78;;;2.01;100.00
44457;BME280;30159;49.316;8.558;2023-01-23T04:03:27;101856.25;;;2.30;100.00
44457;BME280;30159;49.316;8.558;2023-01-23T04:05:56;101856.09;;;2.32;100.00
44457;BME280;30159;49.316;8.558;2023-01-23T04:08:23;101851.25;;;2.21;100.00
44457;BME280;30159;49.316;8.558;2023-01-23T04:10:50;101871.41;;;2.30;100.00
44457;BME280;30159;49.316;8.558;2023-01-23T04:13:17;101883.09;;;2.29;100.00
44457;BME280;30159;49.316;8.558;2023-01-23T04:15:43;101876.03;;;2.21;100.00
44457;BME280;30159;49.316;8.558;2023-01-23T04:18:13;101866.47;;;2.27;100.00
44457;BME280;30159;49.316;8.558;2023-01-23T04:20:39;101828.81;;;2.08;100.00
44457;BME280;30159;49.316;8.558;2023-01-23T04:23:07;101875.09;;;2.29;100.00
44457;BME280;30159;49.316;8.558;2023-01-23T04:25:34;101876.56;;;2.31;100.00
44457;BME280;30159;49.316;8.558;2023-01-23T04:28:00;101872.38;;;2.22;100.00
44457;BME280;30159;49.316;8.558;2023-01-23T04:30:27;101876.03;;;2.21;100.00
44457;BME280;30159;49.316;8.558;2023-01-23T04:32:53;101883.91;;;2.29;100.00
44457;BME280;30159;49.316;8.558;2023-01-23T04:35:20;101891.38;;;2.19;100.00
44457;BME280;30159;49.316;8.558;2023-01-23T04:37:46;101893.75;;;2.14;100.00
44457;BME280;30159;49.316;8.558;2023-01-23T04:40:14;101897.31;;;2.21;100.00
44457;BME280;30159;49.316;8.558;2023-01-23T04:42:41;101890.88;;;2.30;100.00
44457;BME280;30159;49.316;8.558;2023-01-23T04:45:08;101889.88;;;2.31;100.00
44457;BME280;30159;49.316;8.558;2023-01-23T04:47:35;101903.91;;;2.40;100.00
44457;BME280;30159;49.316;8.558;2023-01-23T04:50:01;101775.34;;;1.52;100.00
44457;BME280;30159;49.316;8.558;2023-01-23T04:52:28;101885.78;;;2.14;100.00
44457;BME280;30159;49.316;8.558;2023-01-23T04:54:54;101917.56;;;2.37;100.00
44457;BME280;30159;49.316;8.558;2023-01-23T04:57:23;101915.16;;;2.06;100.00
44457;BME280;30159;49.316;8.558;2023-01-23T04:59:50;101930.38;;;2.12;100.00
44457;BME280;30159;49.316;8.558;2023-01-23T05:02:16;101936.06;;;2.09;100.00
44457;BME280;30159;49.316;8.558;2023-01-23T05:04:43;101864.19;;;1.73;100.00
44457;BME280;30159;49.316;8.558;2023-01-23T05:07:10;101935.16;;;2.02;100.00
44457;BME280;30159;49.316;8.558;2023-01-23T05:09:37;101906.63;;;1.96;100.00
44457;BME280;30159;49.316;8.558;2023-01-23T05:12:05;101935.34;;;2.15;100.00
44457;BME280;30159;49.316;8.558;2023-01-23T05:14:33;101948.66;;;2.15;100.00
44457;BME280;30159;49.316;8.558;2023-01-23T05:16:59;101929.41;;;1.98;100.00
44457;BME280;30159;49.316;8.558;2023-01-23T05:19:26;101933.59;;;2.07;100.00
44457;BME280;30159;49.316;8.558;2023-01-23T05:21:52;101926.34;;;2.16;100.00
44457;BME280;30159;49.316;8.558;2023-01-23T05:24:19;101934.53;;;2.15;100.00
44457;BME280;30159;49.316;8.558;2023-01-23T05:26:45;101941.97;;;2.19;100.00
44457;BME280;30159;49.316;8.558;2023-01-23T05:29:12;101941.56;;;2.22;100.00
44457;BME280;30159;49.316;8.558;2023-01-23T05:31:40;101950.72;;;2.35;100.00
44457;BME280;30159;49.316;8.558;2023-01-23T05:34:07;101944.13;;;2.30;100.00
44457;BME280;30159;49.316;8.558;2023-01-23T05:36:33;101939.63;;;2.31;100.00
44457;BME280;30159;49.316;8.558;2023-01-23T05:39:00;101937.53;;;2.26;100.00
44457;BME280;30159;49.316;8.558;2023-01-23T05:41:26;101939.91;;;2.21;100.00
44457;BME280;30159;49.316;8.558;2023-01-23T05:43:53;101946.50;;;2.25;100.00
44457;BME280;30159;49.316;8.558;2023-01-23T05:46:19;101951.09;;;2.31;100.00
44457;BME280;30159;49.316;8.558;2023-01-23T05:48:48;101956.59;;;2.30;100.00
44457;BME280;30159;49.316;8.558;2023-01-23T05:51:15;101959.63;;;2.42;100.00
44457;BME280;30159;49.316;8.558;2023-01-23T05:53:42;101949.44;;;2.45;100.00
44457;BME280;30159;49.316;8.558;2023-01-23T05:56:09;101946.91;;;2.59;100.00
44457;BME280;30159;49.316;8.558;2023-01-23T05:58:36;101955.25;;;2.70;100.00
44457;BME280;30159;49.316;8.558;2023-01-23T06:01:03;101951.66;;;2.78;100.00
44457;BME280;30159;49.316;8.558;2023-01-23T06:03:29;101958.53;;;2.72;100.00
44457;BME280;30159;49.316;8.558;2023-01-23T06:05:59;101952.59;;;2.70;100.00
44457;BME280;30159;49.316;8.558;2023-01-23T06:08:26;101905.38;;;2.43;100.00
44457;BME280;30159;49.316;8.558;2023-01-23T06:10:52;101927.19;;;2.53;100.00
44457;BME280;30159;49.316;8.558;2023-01-23T06:13:22;101950.28;;;2.67;100.00
44457;BME280;30159;49.316;8.558;2023-01-23T06:15:49;101948.19;;;2.63;100.00
44457;BME280;30159;49.316;8.558;2023-01-23T06:18:15;101947.59;;;2.46;100.00
44457;BME280;30159;49.316;8.558;2023-01-23T06:20:42;101943.75;;;2.34;100.00
44457;BME280;30159;49.316;8.558;2023-01-23T06:23:10;101935.34;;;2.15;100.00
44457;BME280;30159;49.316;8.558;2023-01-23T06:25:39;101944.06;;;1.94;100.00
44457;BME280;30159;49.316;8.558;2023-01-23T06:28:06;101948.00;;;1.83;100.00
44457;BME280;30159;49.316;8.558;2023-01-23T06:30:33;101947.53;;;1.65;100.00
44457;BME280;30159;49.316;8.558;2023-01-23T06:32:59;101945.63;;;1.59;100.00
44457;BME280;30159;49.316;8.558;2023-01-23T06:35:26;101945.84;;;1.49;100.00
44457;BME280;30159;49.316;8.558;2023-01-23T06:37:52;101950.34;;;1.48;100.00
44457;BME280;30159;49.316;8.558;2023-01-23T06:40:20;101948.06;;;1.45;100.00
44457;BME280;30159;49.316;8.558;2023-01-23T06:42:47;101955.00;;;1.46;100.00
44457;BME280;30159;49.316;8.558;2023-01-23T06:45:15;101951.00;;;1.51;100.00
44457;BME280;30159;49.316;8.558;2023-01-23T06:47:41;101954.34;;;1.44;100.00
44457;BME280;30159;49.316;8.558;2023-01-23T06:50:09;101962.00;;;1.47;100.00
44457;BME280;30159;49.316;8.558;2023-01-23T06:52:35;101963.34;;;1.43;100.00
44457;BME280;30159;49.316;8.558;2023-01-23T06:55:02;101972.34;;;1.42;100.00
44457;BME280;30159;49.316;8.558;2023-01-23T06:57:30;101925.41;;;1.12;100.00
44457;BME280;30159;49.316;8.558;2023-01-23T06:59:57;101980.47;;;1.26;100.00
44457;BME280;30159;49.316;8.558;2023-01-23T07:02:23;101989.50;;;1.17;100.00
44457;BME280;30159;49.316;8.558;2023-01-23T07:04:50;101994.16;;;1.15;100.00
44457;BME280;30159;49.316;8.558;2023-01-23T07:07:16;102002.13;;;1.15;100.00
44457;BME280;30159;49.316;8.558;2023-01-23T07:09:43;102003.78;;;1.16;100.00
44457;BME280;30159;49.316;8.558;2023-01-23T07:12:10;101957.31;;;0.89;100.00
44457;BME280;30159;49.316;8.558;2023-01-23T07:14:38;102018.28;;;1.28;100.00
44457;BME280;30159;49.316;8.558;2023-01-23T07:17:04;102021.56;;;1.38;100.00
44457;BME280;30159;49.316;8.558;2023-01-23T07:19:31;102022.66;;;1.44;100.00
44457;BME280;30159;49.316;8.558;2023-01-23T07:21:57;102035.91;;;1.52;100.00
44457;BME280;30159;49.316;8.558;2023-01-23T07:24:25;102044.28;;;1.64;100.00
44457;BME280;30159;49.316;8.558;2023-01-23T07:26:52;102028.88;;;1.59;100.00
44457;BME280;30159;49.316;8.558;2023-01-23T07:29:19;102037.28;;;1.63;100.00
44457;BME280;30159;49.316;8.558;2023-01-23T07:31:47;102018.16;;;1.44;100.00
44457;BME280;30159;49.316;8.558;2023-01-23T07:34:13;102044.63;;;1.61;100.00
44457;BME280;30159;49.316;8.558;2023-01-23T07:36:40;102043.53;;;1.70;100.00
44457;BME280;30159;49.316;8.558;2023-01-23T07:39:08;102045.59;;;1.83;100.00
44457;BME280;30159;49.316;8.558;2023-01-23T07:41:34;102053.97;;;1.95;100.00
44457;BME280;30159;49.316;8.558;2023-01-23T07:44:01;101988.06;;;1.67;100.00
44457;BME280;30159;49.316;8.558;2023-01-23T07:46:27;102043.44;;;2.16;100.00
44457;BME280;30159;49.316;8.558;2023-01-23T07:48:55;102044.00;;;2.11;100.00
44457;BME280;30159;49.316;8.558;2023-01-23T07:51:22;102041.44;;;2.03;100.00
44457;BME280;30159;49.316;8.558;2023-01-23T07:53:48;102040.50;;;2.11;100.00
44457;BME280;30159;49.316;8.558;2023-01-23T07:56:15;102027.84;;;2.13;100.00
44457;BME280;30159;49.316;8.558;2023-01-23T07:58:41;101983.44;;;1.99;100.00
44457;BME280;30159;49.316;8.558;2023-01-23T08:01:09;101981.97;;;2.11;100.00
44457;BME280;30159;49.316;8.558;2023-01-23T08:03:36;101980.47;;;2.23;100.00
44457;BME280;30159;49.316;8.558;2023-01-23T08:06:04;102044.53;;;2.66;100.00
44457;BME280;30159;49.316;8.558;2023-01-23T08:08:31;102007.84;;;2.32;100.00
44457;BME280;30159;49.316;8.558;2023-01-23T08:10:57;102034.72;;;2.52;100.00
44457;BME280;30159;49.316;8.558;2023-01-23T08:13:24;102036.00;;;2.56;100.00
44457;BME280;30159;49.316;8.558;2023-01-23T08:15:50;102036.81;;;2.71;100.00
44457;BME280;30159;49.316;8.558;2023-01-23T08:18:18;102028.25;;;2.76;100.00
44457;BME280;30159;49.316;8.558;2023-01-23T08:20:51;102023.53;;;2.93;100.00
44457;BME280;30159;49.316;8.558;2023-01-23T08:23:19;102011.91;;;2.79;100.00
44457;BME280;30159;49.316;8.558;2023-01-23T08:25:46;102035.63;;;3.10;100.00
44457;BME280;30159;49.316;8.558;2023-01-23T08:28:17;102037.66;;;3.30;100.00
44457;BME280;30159;49.316;8.558;2023-01-23T08:30:43;102014.41;;;3.24;100.00
44457;BME280;30159;49.316;8.558;2023-01-23T08:33:10;102025.75;;;3.54;100.00
44457;BME280;30159;49.316;8.558;2023-01-23T08:35:36;102031.09;;;3.54;100.00
44457;BME280;30159;49.316;8.558;2023-01-23T08:38:03;102036.06;;;3.35;100.00
44457;BME280;30159;49.316;8.558;2023-01-23T08:40:31;102029.16;;;3.41;100.00
44457;BME280;30159;49.316;8.558;2023-01-23T08:42:57;102002.41;;;3.34;100.00
44457;BME280;30159;49.316;8.558;2023-01-23T08:45:24;102025.69;;;3.47;100.00
44457;BME280;30159;49.316;8.558;2023-01-23T08:47:50;102027.75;;;3.45;100.00
44457;BME280;30159;49.316;8.558;2023-01-23T08:50:17;101977.91;;;3.03;100.00
44457;BME280;30159;49.316;8.558;2023-01-23T08:52:43;102029.47;;;3.31;100.00
44457;BME280;30159;49.316;8.558;2023-01-23T08:55:10;102029.16;;;3.41;100.00
44457;BME280;30159;49.316;8.558;2023-01-23T08:57:38;102026.56;;;3.48;100.00
44457;BME280;30159;49.316;8.558;2023-01-23T09:00:06;102035.16;;;3.28;100.00
44457;BME280;30159;49.316;8.558;2023-01-23T09:02:35;102032.50;;;3.28;100.00
44457;BME280;30159;49.316;8.558;2023-01-23T09:05:01;102023.03;;;3.47;100.00
44457;BME280;30159;49.316;8.558;2023-01-23T09:07:29;102041.66;;;3.41;100.00
44457;BME280;30159;49.316;8.558;2023-01-23T09:09:55;102017.47;;;3.21;100.00
44457;BME280;30159;49.316;8.558;2023-01-23T09:12:22;102039.28;;;3.31;100.00
44457;BME280;30159;49.316;8.558;2023-01-23T09:14:49;102046.78;;;3.21;100.00
44457;BME280;30159;49.316;8.558;2023-01-23T09:17:16;102049.59;;;3.12;100.00
44457;BME280;30159;49.316;8.558;2023-01-23T09:19:42;102046.78;;;2.99;100.00
44457;BME280;30159;49.316;8.558;2023-01-23T09:22:09;102010.34;;;2.70;100.00
44457;BME280;30159;49.316;8.558;2023-01-23T09:24:36;102047.25;;;2.88;100.00
44457;BME280;30159;49.316;8.558;2023-01-23T09:27:02;102046.06;;;2.90;100.00
44457;BME280;30159;49.316;8.558;2023-01-23T09:29:29;102040.41;;;3.00;100.00
44457;BME280;30159;49.316;8.558;2023-01-23T09:31:57;102038.97;;;2.98;100.00
44457;BME280;30159;49.316;8.558;2023-01-23T09:34:23;102044.63;;;3.09;100.00
44457;BME280;30159;49.316;8.558;2023-01-23T09:36:51;102053.25;;;3.11;100.00
44457;BME280;30159;49.316;8.558;2023-01-23T09:39:17;102059.78;;;3.09;100.00
44457;BME280;30159;49.316;8.558;2023-01-23T09:41:45;102059.06;;;3.15;100.00
44457;BME280;30159;49.316;8.558;2023-01-23T09:44:16;102022.88;;;3.06;100.00
44457;BME280;30159;49.316;8.558;2023-01-23T09:46:47;102062.03;;;3.27;100.00
44457;BME280;30159;49.316;8.558;2023-01-23T09:49:21;102064.56;;;3.35;100.00
44457;BME280;30159;49.316;8.558;2023-01-23T09:51:54;102063.03;;;3.26;100.00
44457;BME280;30159;49.316;8.558;2023-01-23T09:54:30;102059.38;;;3.27;100.00
44457;BME280;30159;49.316;8.558;2023-01-23T09:57:00;102067.63;;;3.32;100.00
44457;BME280;30159;49.316;8.558;2023-01-23T09:59:34;102055.81;;;3.41;98.57
44457;BME280;30159;49.316;8.558;2023-01-23T10:02:02;102054.72;;;3.35;97.26
44457;BME280;30159;49.316;8.558;2023-01-23T10:04:36;102062.16;;;3.40;97.94
44457;BME280;30159;49.316;8.558;2023-01-23T10:07:26;102040.97;;;3.32;98.01
44457;BME280;30159;49.316;8.558;2023-01-23T10:10:05;102057.97;;;3.31;97.59
44457;BME280;30159;49.316;8.558;2023-01-23T10:12:43;102065.47;;;3.21;98.05
44457;BME280;30159;49.316;8.558;2023-01-23T10:15:21;102045.50;;;2.95;97.03
44457;BME280;30159;49.316;8.558;2023-01-23T10:17:58;102064.66;;;3.05;97.74
44457;BME280;30159;49.316;8.558;2023-01-23T10:20:44;102027.69;;;2.81;97.57
44457;BME280;30159;49.316;8.558;2023-01-23T10:23:24;102058.97;;;3.08;96.55
44457;BME280;30159;49.316;8.558;2023-01-23T10:25:57;102066.75;;;3.10;96.25
44457;BME280;30159;49.316;8.558;2023-01-23T10:28:31;102044.22;;;2.91;95.33
44457;BME280;30159;49.316;8.558;2023-01-23T10:31:02;102050.44;;;2.98;95.67
44457;BME280;30159;49.316;8.558;2023-01-23T10:33:36;102057.69;;;3.04;96.89
44457;BME280;30159;49.316;8.558;2023-01-23T10:36:16;102050.72;;;3.03;96.04
44457;BME280;30159;49.316;8.558;2023-01-23T10:38:52;102020.59;;;2.88;95.41
44457;BME280;30159;49.316;8.558;2023-01-23T10:41:22;102052.59;;;3.24;95.93
44457;BME280;30159;49.316;8.558;2023-01-23T10:43:50;102051.16;;;3.28;96.05
44457;BME280;30159;49.316;8.558;2023-01-23T10:46:21;102048.81;;;3.19;95.32
44457;BME280;30159;49.316;8.558;2023-01-23T10:48:50;102063.03;;;3.04;95.22
44457;BME280;30159;49.316;8.558;2023-01-23T10:51:25;102061.81;;;3.07;96.01
44457;BME280;30159;49.316;8.558;2023-01-23T10:54:05;102030.78;;;3.21;96.90
44457;BME280;30159;49.316;8.558;2023-01-23T10:56:36;102039.19;;;3.39;96.12
44457;BME280;30159;49.316;8.558;2023-01-23T10:59:11;102052.66;;;3.52;94.84
44457;BME280;30159;49.316;8.558;2023-01-23T11:01:54;102052.16;;;3.70;94.34
44457;BME280;30159;49.316;8.558;2023-01-23T11:04:24;102047.69;;;3.71;93.58
44457;BME280;30159;49.316;8.558;2023-01-23T11:07:01;102054.66;;;3.72;93.59
44457;BME280;30159;49.316;8.558;2023-01-23T11:09:28;102058.38;;;3.77;93.46
44457;BME280;30159;49.316;8.558;2023-01-23T11:12:01;102067.66;;;3.82;93.32
44457;BME280;30159;49.316;8.558;2023-01-23T11:14:27;102053.72;;;3.58;92.22
44457;BME280;30159;49.316;8.558;2023-01-23T11:16:59;102057.38;;;3.78;93.86
44457;BME280;30159;49.316;8.558;2023-01-23T11:19:30;102015.84;;;3.69;92.72
44457;BME280;30159;49.316;8.558;2023-01-23T11:22:01;102049.16;;;4.01;92.14
44457;BME280;30159;49.316;8.558;2023-01-23T11:24:32;102046.56;;;3.87;91.19
44457;BME280;30159;49.316;8.558;2023-01-23T11:27:00;102048.63;;;3.91;92.30
44457;BME280;30159;49.316;8.558;2023-01-23T11:29:28;102053.31;;;4.11;91.73
44457;BME280;30159;49.316;8.558;2023-01-23T11:31:58;102059.00;;;4.01;91.46
44457;BME280;30159;49.316;8.558;2023-01-23T11:34:29;102057.78;;;4.04;91.85
44457;BME280;30159;49.316;8.558;2023-01-23T11:37:06;102057.38;;;4.07;91.14
44457;BME280;30159;49.316;8.558;2023-01-23T11:39:46;102047.63;;;3.92;91.91
44457;BME280;30159;49.316;8.558;2023-01-23T11:42:16;102041.78;;;4.04;93.10
44457;BME280;30159;49.316;8.558;2023-01-23T11:44:44;102038.97;;;4.18;92.01
44457;BME280;30159;49.316;8.558;2023-01-23T11:47:22;102034.75;;;4.03;90.58
44457;BME280;30159;49.316;8.558;2023-01-23T11:50:04;102025.34;;;4.07;91.11
44457;BME280;30159;49.316;8.558;2023-01-23T11:52:46;102013.78;;;4.28;91.36
44457;BME280;30159;49.316;8.558;2023-01-23T11:58:23;102016.06;;;4.37;90.53
44457;BME280;30159;49.316;8.558;2023-01-23T12:01:03;101995.59;;;4.10;89.99
44457;BME280;30159;49.316;8.558;2023-01-23T12:04:06;102001.34;;;3.78;90.49
44457;BME280;30159;49.316;8.558;2023-01-23T12:06:41;102011.28;;;3.91;92.35
44457;BME280;30159;49.316;8.558;2023-01-23T12:09:16;102015.78;;;3.91;91.72
44457;BME280;30159;49.316;8.558;2023-01-23T12:12:02;102011.66;;;3.88;92.87
44457;BME280;30159;49.316;8.558;2023-01-23T12:14:37;102009.69;;;3.97;92.66
44457;BME280;30159;49.316;8.558;2023-01-23T12:17:15;102008.88;;;4.03;92.16
44457;BME280;30159;49.316;8.558;2023-01-23T12:19:57;102009.38;;;4.13;91.82
44457;BME280;30159;49.316;8.558;2023-01-23T12:22:32;101964.09;;;3.98;90.79
44457;BME280;30159;49.316;8.558;2023-01-23T12:25:13;101989.31;;;4.31;90.62
44457;BME280;30159;49.316;8.558;2023-01-23T12:27:45;101996.06;;;4.20;90.43
44457;BME280;30159;49.316;8.558;2023-01-23T12:30:46;101994.22;;;4.20;91.62
44457;BME280;30159;49.316;8.558;2023-01-23T12:33:24;101976.16;;;4.22;92.33
44457;BME280;30159;49.316;8.558;2023-01-23T12:36:12;101987.31;;;4.39;92.34
44457;BME280;30159;49.316;8.558;2023-01-23T12:38:47;101986.63;;;4.24;91.97
44457;BME280;30159;49.316;8.558;2023-01-23T12:41:24;101961.34;;;4.20;94.33
44457;BME280;30159;49.316;8.558;2023-01-23T12:43:58;101843.50;;;3.47;93.78
44457;BME280;30159;49.316;8.558;2023-01-23T12:46:31;101969.41;;;4.27;94.24
44457;BME280;30159;49.316;8.558;2023-01-23T12:49:08;101975.06;;;4.17;94.68
44457;BME280;30159;49.316;8.558;2023-01-23T12:51:45;101982.63;;;4.07;94.33
44457;BME280;30159;49.316;8.558;2023-01-23T12:54:20;101974.22;;;4.10;94.91
44457;BME280;30159;49.316;8.558;2023-01-23T12:56:51;101969.28;;;4.07;95.73
44457;BME280;30159;49.316;8.558;2023-01-23T12:59:23;101971.41;;;4.18;96.14
44457;BME280;30159;49.316;8.558;2023-01-23T13:01:59;101961.16;;;4.28;94.78
44457;BME280;30159;49.316;8.558;2023-01-23T13:04:54;101975.56;;;4.27;95.02
44457;BME280;30159;49.316;8.558;2023-01-23T13:07:35;101960.72;;;4.18;95.43
44457;BME280;30159;49.316;8.558;2023-01-23T13:13:25;101960.59;;;4.39;95.43
44457;BME280;30159;49.316;8.558;2023-01-23T13:16:08;101969.13;;;4.63;94.92